sensor_id;sensor_type;location;lat;lon;timestamp;P1;durP1;ratioP1;P2;durP2;ratioP2
17524;SDS011;40431;52.198;9.902;2023-12-07T00:01:09;27.00;;;24.43;;
17524;SDS011;40431;52.198;9.902;2023-12-07T00:03:35;26.43;;;24.07;;
17524;SDS011;40431;52.198;9.902;2023-12-07T00:06:03;27.40;;;25.23;;
17524;SDS011;40431;52.198;9.902;2023-12-07T00:08:30;26.80;;;24.30;;
17524;SDS011;40431;52.198;9.902;2023-12-07T00:10:56;26.27;;;24.03;;
17524;SDS011;40431;52.198;9.902;2023-12-07T00:13:22;26.10;;;23.80;;
17524;SDS011;40431;52.198;9.902;2023-12-07T00:15:49;26.43;;;24.33;;
17524;SDS011;40431;52.198;9.902;2023-12-07T00:18:15;26.67;;;24.37;;
17524;SDS011;40431;52.198;9.902;2023-12-07T00:20:41;23.70;;;21.50;;
17524;SDS011;40431;52.198;9.902;2023-12-07T00:23:09;27.37;;;24.73;;
17524;SDS011;40431;52.198;9.902;2023-12-07T00:25:35;25.40;;;22.90;;
17524;SDS011;40431;52.198;9.902;2023-12-07T00:28:02;24.90;;;22.90;;
17524;SDS011;40431;52.198;9.902;2023-12-07T00:30:28;25.10;;;23.07;;
17524;SDS011;40431;52.198;9.902;2023-12-07T00:32:54;24.40;;;22.50;;
17524;SDS011;40431;52.198;9.902;2023-12-07T00:35:21;25.90;;;23.80;;
17524;SDS011;40431;52.198;9.902;2023-12-07T00:37:47;25.80;;;23.83;;
17524;SDS011;40431;52.198;9.902;2023-12-07T00:40:15;25.10;;;23.10;;
17524;SDS011;40431;52.198;9.902;2023-12-07T00:42:42;24.37;;;22.17;;
17524;SDS011;40431;52.198;9.902;2023-12-07T00:45:08;24.50;;;22.60;;
17524;SDS011;40431;52.198;9.902;2023-12-07T00:47:35;25.67;;;23.60;;
17524;SDS011;40431;52.198;9.902;2023-12-07T00:50:01;24.87;;;22.97;;
17524;SDS011;40431;52.198;9.902;2023-12-07T00:52:27;25.20;;;23.20;;
17524;SDS011;40431;52.198;9.902;2023-12-07T00:54:54;24.30;;;22.10;;
17524;SDS011;40431;52.198;9.902;2023-12-07T00:57:22;25.80;;;23.77;;
17524;SDS011;40431;52.198;9.902;2023-12-07T00:59:48;25.43;;;23.40;;
17524;SDS011;40431;52.198;9.902;2023-12-07T01:02:15;24.47;;;22.47;;
17524;SDS011;40431;52.198;9.902;2023-12-07T01:04:41;25.10;;;23.00;;
17524;SDS011;40431;52.198;9.902;2023-12-07T01:07:07;25.97;;;23.87;;
17524;SDS011;40431;52.198;9.902;2023-12-07T01:09:34;24.60;;;22.60;;
17524;SDS011;40431;52.198;9.902;2023-12-07T01:12:01;24.60;;;22.70;;
17524;SDS011;40431;52.198;9.902;2023-12-07T01:14:29;24.73;;;22.83;;
17524;SDS011;40431;52.198;9.902;2023-12-07T01:16:55;24.23;;;22.33;;
17524;SDS011;40431;52.198;9.902;2023-12-07T01:19:22;25.37;;;23.47;;
17524;SDS011;40431;52.198;9.902;2023-12-07T01:21:50;25.33;;;23.23;;
17524;SDS011;40431;52.198;9.902;2023-12-07T01:24:16;26.27;;;24.17;;
17524;SDS011;40431;52.198;9.902;2023-12-07T01:26:42;26.00;;;23.60;;
17524;SDS011;40431;52.198;9.902;2023-12-07T01:29:09;26.17;;;23.87;;
17524;SDS011;40431;52.198;9.902;2023-12-07T01:31:36;25.23;;;23.33;;
17524;SDS011;40431;52.198;9.902;2023-12-07T01:34:03;25.07;;;22.90;;
17524;SDS011;40431;52.198;9.902;2023-12-07T01:36:29;25.20;;;23.27;;
17524;SDS011;40431;52.198;9.902;2023-12-07T01:38:55;23.83;;;21.97;;
17524;SDS011;40431;52.198;9.902;2023-12-07T01:41:22;25.53;;;23.23;;
17524;SDS011;40431;52.198;9.902;2023-12-07T01:43:48;28.10;;;25.70;;
17524;SDS011;40431;52.198;9.902;2023-12-07T01:46:15;26.27;;;24.07;;
17524;SDS011;40431;52.198;9.902;2023-12-07T01:48:44;26.90;;;24.50;;
17524;SDS011;40431;52.198;9.902;2023-12-07T01:51:13;26.13;;;24.00;;
17524;SDS011;40431;52.198;9.902;2023-12-07T01:53:40;26.53;;;24.43;;
17524;SDS011;40431;52.198;9.902;2023-12-07T01:56:07;27.57;;;25.37;;
17524;SDS011;40431;52.198;9.902;2023-12-07T01:58:35;26.97;;;24.87;;
17524;SDS011;40431;52.198;9.902;2023-12-07T02:01:02;24.50;;;22.40;;
17524;SDS011;40431;52.198;9.902;2023-12-07T02:03:29;23.27;;;21.37;;
17524;SDS011;40431;52.198;9.902;2023-12-07T02:05:57;25.03;;;23.03;;
17524;SDS011;40431;52.198;9.902;2023-12-07T02:08:24;25.07;;;23.17;;
17524;SDS011;40431;52.198;9.902;2023-12-07T02:10:51;25.60;;;23.50;;
17524;SDS011;40431;52.198;9.902;2023-12-07T02:13:17;24.50;;;22.60;;
17524;SDS011;40431;52.198;9.902;2023-12-07T02:15:44;24.70;;;22.70;;
17524;SDS011;40431;52.198;9.902;2023-12-07T02:18:12;26.00;;;23.70;;
17524;SDS011;40431;52.198;9.902;2023-12-07T02:20:43;26.17;;;23.70;;
17524;SDS011;40431;52.198;9.902;2023-12-07T02:23:14;25.83;;;23.83;;
17524;SDS011;40431;52.198;9.902;2023-12-07T02:25:44;27.00;;;24.77;;
17524;SDS011;40431;52.198;9.902;2023-12-07T02:28:18;28.03;;;25.60;;
17524;SDS011;40431;52.198;9.902;2023-12-07T02:30:45;28.57;;;26.27;;
17524;SDS011;40431;52.198;9.902;2023-12-07T02:33:12;27.47;;;25.17;;
17524;SDS011;40431;52.198;9.902;2023-12-07T02:35:39;29.10;;;26.43;;
17524;SDS011;40431;52.198;9.902;2023-12-07T02:38:06;28.50;;;26.03;;
17524;SDS011;40431;52.198;9.902;2023-12-07T02:40:34;28.33;;;25.90;;
17524;SDS011;40431;52.198;9.902;2023-12-07T02:43:00;29.53;;;26.80;;
17524;SDS011;40431;52.198;9.902;2023-12-07T02:45:30;29.27;;;26.70;;
17524;SDS011;40431;52.198;9.902;2023-12-07T02:47:58;27.53;;;25.37;;
17524;SDS011;40431;52.198;9.902;2023-12-07T02:50:24;29.17;;;26.67;;
17524;SDS011;40431;52.198;9.902;2023-12-07T02:52:51;29.33;;;26.53;;
17524;SDS011;40431;52.198;9.902;2023-12-07T02:55:17;29.27;;;26.67;;
17524;SDS011;40431;52.198;9.902;2023-12-07T02:57:45;28.07;;;25.37;;
17524;SDS011;40431;52.198;9.902;2023-12-07T03:00:11;27.27;;;25.07;;
17524;SDS011;40431;52.198;9.902;2023-12-07T03:02:40;28.10;;;25.67;;
17524;SDS011;40431;52.198;9.902;2023-12-07T03:05:07;29.53;;;26.47;;
17524;SDS011;40431;52.198;9.902;2023-12-07T03:07:33;27.50;;;25.10;;
17524;SDS011;40431;52.198;9.902;2023-12-07T03:10:00;27.37;;;24.80;;
17524;SDS011;40431;52.198;9.902;2023-12-07T03:12:27;26.30;;;23.60;;
17524;SDS011;40431;52.198;9.902;2023-12-07T03:14:54;25.67;;;23.57;;
17524;SDS011;40431;52.198;9.902;2023-12-07T03:17:20;26.60;;;24.60;;
17524;SDS011;40431;52.198;9.902;2023-12-07T03:19:48;26.93;;;24.63;;
17524;SDS011;40431;52.198;9.902;2023-12-07T03:22:14;27.23;;;24.77;;
17524;SDS011;40431;52.198;9.902;2023-12-07T03:24:46;26.33;;;24.20;;
17524;SDS011;40431;52.198;9.902;2023-12-07T03:27:16;25.67;;;23.77;;
17524;SDS011;40431;52.198;9.902;2023-12-07T03:29:42;24.73;;;22.73;;
17524;SDS011;40431;52.198;9.902;2023-12-07T03:32:09;25.23;;;23.30;;
17524;SDS011;40431;52.198;9.902;2023-12-07T03:34:35;25.20;;;23.20;;
17524;SDS011;40431;52.198;9.902;2023-12-07T03:37:03;24.63;;;22.60;;
17524;SDS011;40431;52.198;9.902;2023-12-07T03:39:29;24.57;;;22.70;;
17524;SDS011;40431;52.198;9.902;2023-12-07T03:41:57;24.53;;;22.63;;
17524;SDS011;40431;52.198;9.902;2023-12-07T03:44:23;24.77;;;22.77;;
17524;SDS011;40431;52.198;9.902;2023-12-07T03:46:51;24.80;;;22.80;;
17524;SDS011;40431;52.198;9.902;2023-12-07T03:49:17;24.90;;;23.00;;
17524;SDS011;40431;52.198;9.902;2023-12-07T03:51:44;25.67;;;23.57;;
17524;SDS011;40431;52.198;9.902;2023-12-07T03:54:12;25.60;;;23.60;;
17524;SDS011;40431;52.198;9.902;2023-12-07T03:56:38;25.97;;;23.80;;
17524;SDS011;40431;52.198;9.902;2023-12-07T03:59:05;25.47;;;23.37;;
17524;SDS011;40431;52.198;9.902;2023-12-07T04:01:32;26.53;;;24.27;;
17524;SDS011;40431;52.198;9.902;2023-12-07T04:03:58;26.90;;;24.50;;
17524;SDS011;40431;52.198;9.902;2023-12-07T04:06:25;26.90;;;24.70;;
17524;SDS011;40431;52.198;9.902;2023-12-07T04:08:52;27.23;;;24.93;;
17524;SDS011;40431;52.198;9.902;2023-12-07T04:11:20;26.93;;;24.57;;
17524;SDS011;40431;52.198;9.902;2023-12-07T04:13:47;27.33;;;24.93;;
17524;SDS011;40431;52.198;9.902;2023-12-07T04:16:13;28.50;;;25.77;;
17524;SDS011;40431;52.198;9.902;2023-12-07T04:18:40;27.23;;;24.93;;
17524;SDS011;40431;52.198;9.902;2023-12-07T04:21:07;29.13;;;26.47;;
17524;SDS011;40431;52.198;9.902;2023-12-07T04:23:34;30.30;;;27.23;;
17524;SDS011;40431;52.198;9.902;2023-12-07T04:26:00;27.13;;;24.53;;
17524;SDS011;40431;52.198;9.902;2023-12-07T04:28:27;30.03;;;27.27;;
17524;SDS011;40431;52.198;9.902;2023-12-07T04:30:54;26.97;;;24.50;;
17524;SDS011;40431;52.198;9.902;2023-12-07T04:33:20;27.93;;;25.37;;
17524;SDS011;40431;52.198;9.902;2023-12-07T04:35:47;27.07;;;24.87;;
17524;SDS011;40431;52.198;9.902;2023-12-07T04:38:13;27.20;;;24.63;;
17524;SDS011;40431;52.198;9.902;2023-12-07T04:40:39;29.60;;;26.73;;
17524;SDS011;40431;52.198;9.902;2023-12-07T04:43:06;28.57;;;26.00;;
17524;SDS011;40431;52.198;9.902;2023-12-07T04:45:34;29.47;;;26.67;;
17524;SDS011;40431;52.198;9.902;2023-12-07T04:48:00;29.63;;;26.67;;
17524;SDS011;40431;52.198;9.902;2023-12-07T04:50:28;27.80;;;25.20;;
17524;SDS011;40431;52.198;9.902;2023-12-07T04:52:54;29.73;;;26.73;;
17524;SDS011;40431;52.198;9.902;2023-12-07T04:55:21;29.03;;;26.20;;
17524;SDS011;40431;52.198;9.902;2023-12-07T04:57:47;27.63;;;25.13;;
17524;SDS011;40431;52.198;9.902;2023-12-07T05:00:14;29.37;;;26.70;;
17524;SDS011;40431;52.198;9.902;2023-12-07T05:02:42;27.63;;;25.13;;
17524;SDS011;40431;52.198;9.902;2023-12-07T05:05:08;27.87;;;25.53;;
17524;SDS011;40431;52.198;9.902;2023-12-07T05:07:35;28.00;;;25.33;;
17524;SDS011;40431;52.198;9.902;2023-12-07T05:10:01;28.50;;;25.53;;
17524;SDS011;40431;52.198;9.902;2023-12-07T05:12:28;27.93;;;25.23;;
17524;SDS011;40431;52.198;9.902;2023-12-07T05:14:55;29.40;;;25.97;;
17524;SDS011;40431;52.198;9.902;2023-12-07T05:17:21;30.50;;;27.30;;
17524;SDS011;40431;52.198;9.902;2023-12-07T05:19:49;29.20;;;26.17;;
17524;SDS011;40431;52.198;9.902;2023-12-07T05:22:15;29.37;;;26.33;;
17524;SDS011;40431;52.198;9.902;2023-12-07T05:24:41;31.40;;;26.57;;
17524;SDS011;40431;52.198;9.902;2023-12-07T05:27:08;29.77;;;26.83;;
17524;SDS011;40431;52.198;9.902;2023-12-07T05:29:35;28.03;;;25.40;;
17524;SDS011;40431;52.198;9.902;2023-12-07T05:32:01;28.30;;;25.33;;
17524;SDS011;40431;52.198;9.902;2023-12-07T05:34:29;26.30;;;24.03;;
17524;SDS011;40431;52.198;9.902;2023-12-07T05:36:56;26.60;;;24.10;;
17524;SDS011;40431;52.198;9.902;2023-12-07T05:39:22;26.50;;;24.13;;
17524;SDS011;40431;52.198;9.902;2023-12-07T05:41:49;27.10;;;24.03;;
17524;SDS011;40431;52.198;9.902;2023-12-07T05:44:15;24.97;;;22.63;;
17524;SDS011;40431;52.198;9.902;2023-12-07T05:46:46;25.07;;;22.73;;
17524;SDS011;40431;52.198;9.902;2023-12-07T05:49:12;25.37;;;23.40;;
17524;SDS011;40431;52.198;9.902;2023-12-07T05:51:39;23.87;;;21.73;;
17524;SDS011;40431;52.198;9.902;2023-12-07T05:54:06;24.00;;;21.93;;
17524;SDS011;40431;52.198;9.902;2023-12-07T05:56:33;25.00;;;22.53;;
17524;SDS011;40431;52.198;9.902;2023-12-07T05:58:59;24.20;;;22.13;;
17524;SDS011;40431;52.198;9.902;2023-12-07T06:01:25;24.30;;;21.77;;
17524;SDS011;40431;52.198;9.902;2023-12-07T06:03:52;24.73;;;22.73;;
17524;SDS011;40431;52.198;9.902;2023-12-07T06:06:18;24.13;;;22.27;;
17524;SDS011;40431;52.198;9.902;2023-12-07T06:08:46;24.27;;;22.27;;
17524;SDS011;40431;52.198;9.902;2023-12-07T06:11:14;24.27;;;22.13;;
17524;SDS011;40431;52.198;9.902;2023-12-07T06:13:40;23.53;;;21.63;;
17524;SDS011;40431;52.198;9.902;2023-12-07T06:16:08;26.47;;;24.07;;
17524;SDS011;40431;52.198;9.902;2023-12-07T06:18:38;25.20;;;22.90;;
17524;SDS011;40431;52.198;9.902;2023-12-07T06:21:04;24.83;;;22.73;;
17524;SDS011;40431;52.198;9.902;2023-12-07T06:23:31;24.37;;;22.03;;
17524;SDS011;40431;52.198;9.902;2023-12-07T06:25:58;24.23;;;21.93;;
17524;SDS011;40431;52.198;9.902;2023-12-07T06:28:26;24.10;;;21.93;;
17524;SDS011;40431;52.198;9.902;2023-12-07T06:30:52;22.70;;;20.90;;
17524;SDS011;40431;52.198;9.902;2023-12-07T06:33:19;24.20;;;22.30;;
17524;SDS011;40431;52.198;9.902;2023-12-07T06:35:45;25.17;;;23.17;;
17524;SDS011;40431;52.198;9.902;2023-12-07T06:38:12;23.73;;;21.73;;
17524;SDS011;40431;52.198;9.902;2023-12-07T06:40:38;24.07;;;22.00;;
17524;SDS011;40431;52.198;9.902;2023-12-07T06:43:05;22.77;;;21.03;;
17524;SDS011;40431;52.198;9.902;2023-12-07T06:45:32;23.63;;;21.60;;
17524;SDS011;40431;52.198;9.902;2023-12-07T06:47:59;25.00;;;22.90;;
17524;SDS011;40431;52.198;9.902;2023-12-07T06:50:26;23.93;;;21.90;;
17524;SDS011;40431;52.198;9.902;2023-12-07T06:52:53;23.47;;;21.43;;
17524;SDS011;40431;52.198;9.902;2023-12-07T06:55:19;24.77;;;22.70;;
17524;SDS011;40431;52.198;9.902;2023-12-07T06:57:47;23.23;;;21.23;;
17524;SDS011;40431;52.198;9.902;2023-12-07T07:00:14;23.70;;;21.70;;
17524;SDS011;40431;52.198;9.902;2023-12-07T07:02:43;25.83;;;23.33;;
17524;SDS011;40431;52.198;9.902;2023-12-07T07:05:10;28.03;;;25.23;;
17524;SDS011;40431;52.198;9.902;2023-12-07T07:07:37;24.87;;;22.57;;
17524;SDS011;40431;52.198;9.902;2023-12-07T07:10:03;25.13;;;22.73;;
17524;SDS011;40431;52.198;9.902;2023-12-07T07:12:30;24.53;;;22.50;;
17524;SDS011;40431;52.198;9.902;2023-12-07T07:14:56;25.47;;;23.40;;
17524;SDS011;40431;52.198;9.902;2023-12-07T07:17:23;26.23;;;23.80;;
17524;SDS011;40431;52.198;9.902;2023-12-07T07:19:50;24.83;;;22.80;;
17524;SDS011;40431;52.198;9.902;2023-12-07T07:22:17;24.50;;;22.50;;
17524;SDS011;40431;52.198;9.902;2023-12-07T07:24:43;23.87;;;21.97;;
17524;SDS011;40431;52.198;9.902;2023-12-07T07:27:09;26.33;;;24.13;;
17524;SDS011;40431;52.198;9.902;2023-12-07T07:29:35;26.27;;;23.67;;
17524;SDS011;40431;52.198;9.902;2023-12-07T07:32:02;26.63;;;24.17;;
17524;SDS011;40431;52.198;9.902;2023-12-07T07:34:28;27.07;;;24.57;;
17524;SDS011;40431;52.198;9.902;2023-12-07T07:36:56;32.17;;;25.10;;
17524;SDS011;40431;52.198;9.902;2023-12-07T07:39:22;26.33;;;23.83;;
17524;SDS011;40431;52.198;9.902;2023-12-07T07:41:49;25.40;;;23.00;;
17524;SDS011;40431;52.198;9.902;2023-12-07T07:44:15;25.13;;;23.00;;
17524;SDS011;40431;52.198;9.902;2023-12-07T07:46:41;25.40;;;23.40;;
17524;SDS011;40431;52.198;9.902;2023-12-07T07:49:08;26.23;;;23.53;;
17524;SDS011;40431;52.198;9.902;2023-12-07T07:51:34;25.40;;;23.10;;
17524;SDS011;40431;52.198;9.902;2023-12-07T07:54:02;25.17;;;22.80;;
17524;SDS011;40431;52.198;9.902;2023-12-07T07:56:28;26.47;;;23.90;;
17524;SDS011;40431;52.198;9.902;2023-12-07T07:58:55;24.87;;;22.87;;
17524;SDS011;40431;52.198;9.902;2023-12-07T08:01:23;25.50;;;23.40;;
17524;SDS011;40431;52.198;9.902;2023-12-07T08:03:49;25.93;;;23.43;;
17524;SDS011;40431;52.198;9.902;2023-12-07T08:06:15;25.80;;;23.60;;
17524;SDS011;40431;52.198;9.902;2023-12-07T08:08:42;25.30;;;23.23;;
17524;SDS011;40431;52.198;9.902;2023-12-07T08:11:09;25.03;;;22.87;;
17524;SDS011;40431;52.198;9.902;2023-12-07T08:13:36;26.40;;;23.70;;
17524;SDS011;40431;52.198;9.902;2023-12-07T08:16:02;25.73;;;23.47;;
17524;SDS011;40431;52.198;9.902;2023-12-07T08:18:29;26.10;;;23.60;;
17524;SDS011;40431;52.198;9.902;2023-12-07T08:20:55;27.57;;;25.03;;
17524;SDS011;40431;52.198;9.902;2023-12-07T08:23:23;26.17;;;23.77;;
17524;SDS011;40431;52.198;9.902;2023-12-07T08:25:49;23.90;;;21.90;;
17524;SDS011;40431;52.198;9.902;2023-12-07T08:28:17;25.40;;;23.07;;
17524;SDS011;40431;52.198;9.902;2023-12-07T08:30:43;24.67;;;22.27;;
17524;SDS011;40431;52.198;9.902;2023-12-07T08:33:09;23.90;;;21.93;;
17524;SDS011;40431;52.198;9.902;2023-12-07T08:35:36;26.73;;;24.23;;
17524;SDS011;40431;52.198;9.902;2023-12-07T08:38:03;21.60;;;19.70;;
17524;SDS011;40431;52.198;9.902;2023-12-07T08:40:29;22.33;;;20.67;;
17524;SDS011;40431;52.198;9.902;2023-12-07T08:42:56;23.00;;;21.10;;
17524;SDS011;40431;52.198;9.902;2023-12-07T08:45:24;22.67;;;20.80;;
17524;SDS011;40431;52.198;9.902;2023-12-07T08:47:50;23.90;;;21.80;;
17524;SDS011;40431;52.198;9.902;2023-12-07T08:50:17;23.73;;;21.47;;
17524;SDS011;40431;52.198;9.902;2023-12-07T08:52:43;23.33;;;21.23;;
17524;SDS011;40431;52.198;9.902;2023-12-07T08:55:10;24.57;;;22.47;;
17524;SDS011;40431;52.198;9.902;2023-12-07T08:57:36;26.33;;;24.03;;
17524;SDS011;40431;52.198;9.902;2023-12-07T09:00:03;51.53;;;35.03;;
17524;SDS011;40431;52.198;9.902;2023-12-07T09:02:32;43.70;;;31.90;;
17524;SDS011;40431;52.198;9.902;2023-12-07T09:04:58;34.10;;;30.40;;
17524;SDS011;40431;52.198;9.902;2023-12-07T09:07:25;24.63;;;22.77;;
17524;SDS011;40431;52.198;9.902;2023-12-07T09:09:51;21.47;;;19.57;;
17524;SDS011;40431;52.198;9.902;2023-12-07T09:12:17;22.30;;;20.60;;
17524;SDS011;40431;52.198;9.902;2023-12-07T09:14:44;21.77;;;20.10;;
17524;SDS011;40431;52.198;9.902;2023-12-07T09:17:10;20.17;;;18.33;;
17524;SDS011;40431;52.198;9.902;2023-12-07T09:19:38;23.10;;;21.00;;
17524;SDS011;40431;52.198;9.902;2023-12-07T09:22:04;21.10;;;19.40;;
17524;SDS011;40431;52.198;9.902;2023-12-07T09:24:31;21.40;;;19.53;;
17524;SDS011;40431;52.198;9.902;2023-12-07T09:26:57;22.20;;;20.40;;
17524;SDS011;40431;52.198;9.902;2023-12-07T09:29:24;20.53;;;18.93;;
17524;SDS011;40431;52.198;9.902;2023-12-07T09:31:50;19.80;;;18.20;;
17524;SDS011;40431;52.198;9.902;2023-12-07T09:34:17;19.83;;;18.27;;
17524;SDS011;40431;52.198;9.902;2023-12-07T09:36:45;20.57;;;18.73;;
17524;SDS011;40431;52.198;9.902;2023-12-07T09:39:11;20.63;;;18.93;;
17524;SDS011;40431;52.198;9.902;2023-12-07T09:41:39;19.90;;;18.30;;
17524;SDS011;40431;52.198;9.902;2023-12-07T09:44:06;21.37;;;19.43;;
17524;SDS011;40431;52.198;9.902;2023-12-07T09:46:32;22.20;;;20.17;;
17524;SDS011;40431;52.198;9.902;2023-12-07T09:48:59;22.83;;;20.90;;
17524;SDS011;40431;52.198;9.902;2023-12-07T09:51:25;19.87;;;18.27;;
17524;SDS011;40431;52.198;9.902;2023-12-07T09:53:55;19.83;;;18.43;;
17524;SDS011;40431;52.198;9.902;2023-12-07T09:56:21;19.90;;;18.30;;
17524;SDS011;40431;52.198;9.902;2023-12-07T09:58:47;20.77;;;19.17;;
17524;SDS011;40431;52.198;9.902;2023-12-07T10:01:14;20.33;;;18.63;;
17524;SDS011;40431;52.198;9.902;2023-12-07T10:03:40;20.03;;;18.43;;
17524;SDS011;40431;52.198;9.902;2023-12-07T10:06:08;20.13;;;18.43;;
17524;SDS011;40431;52.198;9.902;2023-12-07T10:08:34;19.63;;;18.03;;
17524;SDS011;40431;52.198;9.902;2023-12-07T10:11:04;20.30;;;18.43;;
17524;SDS011;40431;52.198;9.902;2023-12-07T10:13:32;21.23;;;19.23;;
17524;SDS011;40431;52.198;9.902;2023-12-07T10:16:09;20.90;;;19.30;;
17524;SDS011;40431;52.198;9.902;2023-12-07T10:18:36;20.93;;;19.27;;
17524;SDS011;40431;52.198;9.902;2023-12-07T10:21:05;20.43;;;18.40;;
17524;SDS011;40431;52.198;9.902;2023-12-07T10:23:32;19.30;;;17.73;;
17524;SDS011;40431;52.198;9.902;2023-12-07T10:25:59;20.43;;;18.93;;
17524;SDS011;40431;52.198;9.902;2023-12-07T10:28:27;21.83;;;20.17;;
17524;SDS011;40431;52.198;9.902;2023-12-07T10:30:53;21.63;;;19.83;;
17524;SDS011;40431;52.198;9.902;2023-12-07T10:33:20;21.03;;;19.17;;
17524;SDS011;40431;52.198;9.902;2023-12-07T10:35:46;21.77;;;20.10;;
17524;SDS011;40431;52.198;9.902;2023-12-07T10:38:13;22.20;;;20.27;;
17524;SDS011;40431;52.198;9.902;2023-12-07T10:40:39;20.97;;;19.07;;
17524;SDS011;40431;52.198;9.902;2023-12-07T10:43:06;21.73;;;19.87;;
17524;SDS011;40431;52.198;9.902;2023-12-07T10:45:35;24.27;;;22.13;;
17524;SDS011;40431;52.198;9.902;2023-12-07T10:48:03;23.00;;;21.13;;
17524;SDS011;40431;52.198;9.902;2023-12-07T10:50:32;22.50;;;20.47;;
17524;SDS011;40431;52.198;9.902;2023-12-07T10:53:04;22.07;;;20.10;;
17524;SDS011;40431;52.198;9.902;2023-12-07T10:55:36;22.40;;;20.60;;
17524;SDS011;40431;52.198;9.902;2023-12-07T10:58:09;21.90;;;20.20;;
17524;SDS011;40431;52.198;9.902;2023-12-07T11:00:39;22.00;;;20.20;;
17524;SDS011;40431;52.198;9.902;2023-12-07T11:03:09;20.83;;;19.00;;
17524;SDS011;40431;52.198;9.902;2023-12-07T11:05:36;21.93;;;20.13;;
17524;SDS011;40431;52.198;9.902;2023-12-07T11:08:04;21.63;;;19.73;;
17524;SDS011;40431;52.198;9.902;2023-12-07T11:10:35;20.87;;;19.17;;
17524;SDS011;40431;52.198;9.902;2023-12-07T11:13:16;22.70;;;20.73;;
17524;SDS011;40431;52.198;9.902;2023-12-07T11:15:47;22.07;;;19.97;;
17524;SDS011;40431;52.198;9.902;2023-12-07T11:18:14;21.30;;;19.50;;
17524;SDS011;40431;52.198;9.902;2023-12-07T11:20:41;22.20;;;20.37;;
17524;SDS011;40431;52.198;9.902;2023-12-07T11:23:09;21.63;;;19.93;;
17524;SDS011;40431;52.198;9.902;2023-12-07T11:25:35;22.37;;;20.53;;
17524;SDS011;40431;52.198;9.902;2023-12-07T11:28:02;21.73;;;19.87;;
17524;SDS011;40431;52.198;9.902;2023-12-07T11:30:30;22.03;;;19.80;;
17524;SDS011;40431;52.198;9.902;2023-12-07T11:32:59;23.50;;;21.37;;
17524;SDS011;40431;52.198;9.902;2023-12-07T11:35:26;22.37;;;20.37;;
17524;SDS011;40431;52.198;9.902;2023-12-07T11:38:05;23.93;;;21.90;;
17524;SDS011;40431;52.198;9.902;2023-12-07T11:40:36;26.27;;;23.70;;
17524;SDS011;40431;52.198;9.902;2023-12-07T11:43:03;21.80;;;20.00;;
17524;SDS011;40431;52.198;9.902;2023-12-07T11:45:37;23.30;;;21.30;;
17524;SDS011;40431;52.198;9.902;2023-12-07T11:48:12;25.33;;;22.83;;
17524;SDS011;40431;52.198;9.902;2023-12-07T11:50:53;24.80;;;22.60;;
17524;SDS011;40431;52.198;9.902;2023-12-07T11:53:21;22.00;;;20.17;;
17524;SDS011;40431;52.198;9.902;2023-12-07T11:55:48;22.33;;;20.53;;
17524;SDS011;40431;52.198;9.902;2023-12-07T11:58:15;22.57;;;20.57;;
17524;SDS011;40431;52.198;9.902;2023-12-07T12:00:41;21.30;;;19.63;;
17524;SDS011;40431;52.198;9.902;2023-12-07T12:03:09;22.63;;;20.73;;
17524;SDS011;40431;52.198;9.902;2023-12-07T12:05:37;21.33;;;19.33;;
17524;SDS011;40431;52.198;9.902;2023-12-07T12:08:05;22.50;;;20.40;;
17524;SDS011;40431;52.198;9.902;2023-12-07T12:10:31;20.33;;;18.33;;
17524;SDS011;40431;52.198;9.902;2023-12-07T12:13:00;21.80;;;19.90;;
17524;SDS011;40431;52.198;9.902;2023-12-07T12:15:27;21.03;;;17.73;;
17524;SDS011;40431;52.198;9.902;2023-12-07T12:17:55;18.93;;;17.33;;
17524;SDS011;40431;52.198;9.902;2023-12-07T12:20:22;18.43;;;17.00;;
17524;SDS011;40431;52.198;9.902;2023-12-07T12:22:50;19.30;;;17.80;;
17524;SDS011;40431;52.198;9.902;2023-12-07T12:25:18;21.10;;;19.20;;
17524;SDS011;40431;52.198;9.902;2023-12-07T12:27:45;19.40;;;17.80;;
17524;SDS011;40431;52.198;9.902;2023-12-07T12:30:13;19.40;;;17.80;;
17524;SDS011;40431;52.198;9.902;2023-12-07T12:32:42;19.43;;;17.60;;
17524;SDS011;40431;52.198;9.902;2023-12-07T12:35:08;18.10;;;16.70;;
17524;SDS011;40431;52.198;9.902;2023-12-07T12:37:35;25.37;;;23.27;;
17524;SDS011;40431;52.198;9.902;2023-12-07T12:40:06;19.03;;;17.33;;
17524;SDS011;40431;52.198;9.902;2023-12-07T12:42:33;18.00;;;16.50;;
17524;SDS011;40431;52.198;9.902;2023-12-07T12:45:02;19.83;;;18.23;;
17524;SDS011;40431;52.198;9.902;2023-12-07T12:47:29;20.43;;;18.83;;
17524;SDS011;40431;52.198;9.902;2023-12-07T12:49:56;19.37;;;17.80;;
17524;SDS011;40431;52.198;9.902;2023-12-07T12:52:23;18.17;;;16.67;;
17524;SDS011;40431;52.198;9.902;2023-12-07T12:54:50;18.43;;;16.77;;
17524;SDS011;40431;52.198;9.902;2023-12-07T12:57:18;19.07;;;17.37;;
17524;SDS011;40431;52.198;9.902;2023-12-07T12:59:44;19.27;;;17.77;;
17524;SDS011;40431;52.198;9.902;2023-12-07T13:02:11;18.23;;;16.70;;
17524;SDS011;40431;52.198;9.902;2023-12-07T13:04:37;18.37;;;16.67;;
17524;SDS011;40431;52.198;9.902;2023-12-07T13:07:04;17.00;;;15.70;;
17524;SDS011;40431;52.198;9.902;2023-12-07T13:09:30;18.43;;;16.93;;
17524;SDS011;40431;52.198;9.902;2023-12-07T13:11:57;18.50;;;17.10;;
17524;SDS011;40431;52.198;9.902;2023-12-07T13:14:25;21.07;;;17.57;;
17524;SDS011;40431;52.198;9.902;2023-12-07T13:16:52;17.93;;;16.43;;
17524;SDS011;40431;52.198;9.902;2023-12-07T13:19:18;16.67;;;15.10;;
17524;SDS011;40431;52.198;9.902;2023-12-07T13:21:45;18.10;;;16.33;;
17524;SDS011;40431;52.198;9.902;2023-12-07T13:24:12;15.53;;;14.33;;
17524;SDS011;40431;52.198;9.902;2023-12-07T13:26:38;17.77;;;14.97;;
17524;SDS011;40431;52.198;9.902;2023-12-07T13:29:05;19.03;;;17.33;;
17524;SDS011;40431;52.198;9.902;2023-12-07T13:31:34;17.93;;;16.23;;
17524;SDS011;40431;52.198;9.902;2023-12-07T13:34:00;15.77;;;14.57;;
17524;SDS011;40431;52.198;9.902;2023-12-07T13:36:27;17.80;;;16.30;;
17524;SDS011;40431;52.198;9.902;2023-12-07T13:38:54;16.43;;;14.80;;
17524;SDS011;40431;52.198;9.902;2023-12-07T13:41:21;14.70;;;13.50;;
17524;SDS011;40431;52.198;9.902;2023-12-07T13:43:47;13.57;;;12.53;;
17524;SDS011;40431;52.198;9.902;2023-12-07T13:46:15;12.70;;;11.70;;
17524;SDS011;40431;52.198;9.902;2023-12-07T13:48:43;12.00;;;11.10;;
17524;SDS011;40431;52.198;9.902;2023-12-07T13:51:10;13.13;;;12.03;;
17524;SDS011;40431;52.198;9.902;2023-12-07T13:53:37;15.53;;;14.03;;
17524;SDS011;40431;52.198;9.902;2023-12-07T13:56:04;13.20;;;12.00;;
17524;SDS011;40431;52.198;9.902;2023-12-07T13:58:32;11.00;;;9.93;;
17524;SDS011;40431;52.198;9.902;2023-12-07T14:00:59;10.90;;;9.90;;
17524;SDS011;40431;52.198;9.902;2023-12-07T14:03:26;9.43;;;8.73;;
17524;SDS011;40431;52.198;9.902;2023-12-07T14:05:53;10.60;;;9.60;;
17524;SDS011;40431;52.198;9.902;2023-12-07T14:08:20;8.33;;;7.73;;
17524;SDS011;40431;52.198;9.902;2023-12-07T14:10:46;8.20;;;7.50;;
17524;SDS011;40431;52.198;9.902;2023-12-07T14:13:13;7.80;;;7.20;;
17524;SDS011;40431;52.198;9.902;2023-12-07T14:15:39;15.13;;;8.43;;
17524;SDS011;40431;52.198;9.902;2023-12-07T14:18:05;12.53;;;7.90;;
17524;SDS011;40431;52.198;9.902;2023-12-07T14:20:32;7.77;;;7.27;;